Billings, MT

2:11 PM MDT on April 28, 2015 (GMT -0600)
Downtown Billings | | Change Station
CLOSE
Current Station
Personal Weather Station
Location: Billings, MT
Elevation: 3127 ft
Nearby Weather Stations

Elev 3127 ft 45.78 °N, 108.50 °W | Updated 44 minutes ago

Partly Cloudy
Partly Cloudy
68.2 °F
Feels Like 68.2 °F
N
2.9
Wind Variable Wind from SW
Gusts 7.4 mph

Today
High -- | Low -- °F
--% Chance of Precip.
Yesterday
High -- | Low -- °F
Precip. -- in
6:06 AM 8:17 PM
Waxing Gibbous, 76% visible
Pressure 30.10 in
Visibility 10.0 miles
Clouds Few 14000 ft
Scattered Clouds 25000 ft
Dew Point 41 °F
Humidity 36%
Rainfall -999.00 in
Snow Depth Not available.
UV 8 out of 12
Pollen 9.70 out of 12
Air Quality Not available.
Flu Activity Local Activity
METAR KBIL 281953Z 17007KT 140V200 10SM FEW140 SCT250 19/02 A3013 RMK AO2 SLP191 T01940022

More Conditions Fewer Conditions

Pressure 30.10 in
Visibility 10.0 miles
Clouds Few 14000 ft
Scattered Clouds 25000 ft
Dew Point 41 °F
Humidity 36%
Rainfall -999.00 in
Snow Depth Not available.
UV 8 out of 12
Pollen 9.70 out of 12
Air Quality Not available.
Flu Activity Local Activity
METAR KBIL 281953Z 17007KT 140V200 10SM FEW140 SCT250 19/02 A3013 RMK AO2 SLP191 T01940022

More Conditions Fewer Conditions

10-Day Weather Forecast

Almanac

Astronomy

Apr. 28, 2015 Rise Set
Actual Time
Civil Twilight
Nautical Twilight
Astronomical Twilight
Moon
Length of Visible Light
Length of Day
Tomorrow will be .
, % of the Moon is Illuminated

Today's Extremes

State Highs State Lows

Community

WunderPhotos

Upload Photos

1,817,749 photos uploaded!

WunderBlogs® & News

Nearby

Air Quality

  Air Quality AQ Index Pollutant
Not available.

Snow Depth

Station Depth Elevation

Earthquake Activity

City Distance Mag. Time & Date
Minimum magnitude displayed is 2.5.

Coastal Water Temperatures

Place Temperature

Stations

Nearby Weather Stations

Station Location Temp. Windchill Dew Point Humidity Wind Precip. Elev Updated Type